Briefing drone pour Chalon-sur-saone (LFLH)

Rechercher une autre localisation

Conditions de vol :


Nous sommes le : Jeudi 26 mai 2022
Il est 05:31 UTC (07:31 LT)

Lever de soleil : 03:28 UTC (05:28 LT)
Coucher de soleil : 19:46 UTC (21:46 LT)

Météo

L'essentiel des conditions de vol

VIGILANCE MÉTÉO FRANCE - Saône-et-Loire (71)
Pas de vigilances particulieres
CARTE TEMSI
CARTES DES FRONTS
METAR de LFLH
LFLH 251800Z AUTO 31009KT 9999 FEW008 SCT058 20/08 Q1021

Date d'émission: 25/05/2022
Heure d'émission: 18:00 UTC
Vent: 310° pour 9 KT (17 km/h)
Visibilité horizontale: > 10 km
Plafond :
- Peu de nuages à 800ft (244m)
- Nuages épars à 5800ft (1768m)
Température: 20 °C
Point de rosée: 8 °C
Humidité: 46%
Pression (QNH): 1021 hPa
Prévision 24h pour Chalon-sur-saone
Vent : 305° pour 1 KT (5 km/h)
Temperature Maxi: 12 °C
Temperature Min: 12 °C
Humidité : 91%
Condition : Ciel dégagé



Warning: count(): Parameter must be an array or an object that implements Countable in /homepages/6/d509196549/htdocs/droneoxygene/briefing.php on line 743
WEBCAM POUR CHALON-SUR-SAONE

Réglementation

Voler en sécurité

CARTES AERONAUTIQUE 1/500.000
CARTES VAC (LFLH)
SUP AIP




Chargement des AIP...
NOTAM (CHALON-SUR-SAONE + Terrain à proximité / FIR )




Chargement des NOTAMS...
CONTACT PREFECTURE 71


Avertissement : Les données mises à disposition sont indicatives. Oxygène Drone ne pourra être tenu responsable de dégâts causés aux biens et aux personnes.